sim
Sign-in with your pilot id or email,
or register
Callsign
Passwort

Schedule Details

Flight Number: DLH1894 (2)
Departure: Munich Airport (EDDM) at 05:55
Arrival: Turin Caselle Airport (LIMF) at 07:10
Route: Lufthansa Passenger Schedule. Enter filed route here before submitting Pirep.

Weather Information
Getting current METAR information for EDDM 250820Z 27009KT 9999 RA FEW012 BKN035 09/08 Q1003 BECMG NSW
Getting current METAR information for LIMF 250820Z 07006KT 9999 SCT020CB BKN040 BKN100 13/10 Q0996 RERA

Schedule Frequency

Route Map